<?xml version="1.0" encoding="UTF-8" standalone="no" ?><gpx xmlns="http://www.topografix.com/GPX/1/1" xmlns:gpxx="http://www.garmin.com/xmlschemas/GpxExtensions/v3" xmlns:wptx1="http://www.garmin.com/xmlschemas/WaypointExtension/v1" xmlns:gpxtpx="http://www.garmin.com/xmlschemas/TrackPointExtension/v1" creator="GuideVTT.com" version="1.1" xmlns:xsi="http://www.w3.org/2001/XMLSchema-instance" xsi:schemaLocation="http://www.topografix.com/GPX/1/1 http://www.topografix.com/GPX/1/1/gpx.xsd http://www.garmin.com/xmlschemas/GpxExtensions/v3 http://www8.garmin.com/xmlschemas/GpxExtensionsv3.xsd http://www.garmin.com/xmlschemas/WaypointExtension/v1 http://www8.garmin.com/xmlschemas/WaypointExtensionv1.xsd http://www.garmin.com/xmlschemas/TrackPointExtension/v1 http://www.garmin.com/xmlschemas/TrackPointExtensionv1.xsd">
<metadata><link href="http://www.garmin.com"><text>Garmin International</text></link><time>2013-06-22T15:13:50Z</time></metadata>
<trk><name>2008-07-04.gpx</name><extensions><gpxx:TrackExtension><gpxx:DisplayColor>Cyan</gpxx:DisplayColor></gpxx:TrackExtension></extensions><trkseg>
<trkpt lat="46.21445219" lon="7.28128728"><ele></ele><time>2014-6-4T10:42:46Z</time></trkpt>
<trkpt lat="38.85554999" lon="-94.79901667"><ele></ele><time>2014-6-4T10:42:49Z</time></trkpt>
<trkpt lat="50.98288329" lon="-1.46389998"><ele></ele><time>2014-6-4T10:42:52Z</time></trkpt>
<trkpt lat="25.06178336" lon="121.64026667"><ele></ele><time>2014-6-4T10:42:55Z</time></trkpt>
<trkpt lat="" lon=""><ele></ele><time>2014-6-4T10:42:58Z</time></trkpt>
<trkpt lat="46.22348637" lon="7.28097397"><ele></ele><time>2014-6-4T10:43:1Z</time></trkpt>
<trkpt lat="46.22362317" lon="7.28120766"><ele></ele><time>2014-6-4T10:43:4Z</time></trkpt>
<trkpt lat="46.22367857" lon="7.28129500"><ele></ele><time>2014-6-4T10:43:7Z</time></trkpt>
<trkpt lat="46.22427436" lon="7.28269620"><ele></ele><time>2014-6-4T10:43:10Z</time></trkpt>
<trkpt lat="46.22450125" lon="7.28329307"><ele></ele><time>2014-6-4T10:43:13Z</time></trkpt>
<trkpt lat="46.22458139" lon="7.28353146"><ele></ele><time>2014-6-4T10:43:16Z</time></trkpt>
<trkpt lat="46.22503015" lon="7.28350296"><ele></ele><time>2014-6-4T10:43:19Z</time></trkpt>
<trkpt lat="46.22531447" lon="7.28335242"><ele></ele><time>2014-6-4T10:43:22Z</time></trkpt>
<trkpt lat="46.22552611" lon="7.28327036"><ele></ele><time>2014-6-4T10:43:25Z</time></trkpt>
<trkpt lat="46.22563759" lon="7.28326357"><ele></ele><time>2014-6-4T10:43:28Z</time></trkpt>
<trkpt lat="46.22568930" lon="7.28444885"><ele></ele><time>2014-6-4T10:43:31Z</time></trkpt>
<trkpt lat="46.22571252" lon="7.28549986"><ele></ele><time>2014-6-4T10:43:34Z</time></trkpt>
<trkpt lat="46.22574655" lon="7.28700073"><ele></ele><time>2014-6-4T10:43:37Z</time></trkpt>
<trkpt lat="46.22577530" lon="7.28852606"><ele></ele><time>2014-6-4T10:43:40Z</time></trkpt>
<trkpt lat="46.22571998" lon="7.28984672"><ele></ele><time>2014-6-4T10:43:43Z</time></trkpt>
<trkpt lat="46.22554497" lon="7.29160499"><ele></ele><time>2014-6-4T10:43:46Z</time></trkpt>
<trkpt lat="46.22536534" lon="7.29337466"><ele></ele><time>2014-6-4T10:43:49Z</time></trkpt>
<trkpt lat="46.22535738" lon="7.29349175"><ele></ele><time>2014-6-4T10:43:52Z</time></trkpt>
<trkpt lat="46.22528387" lon="7.29384086"><ele></ele><time>2014-6-4T10:43:55Z</time></trkpt>
<trkpt lat="46.22528999" lon="7.29421830"><ele></ele><time>2014-6-4T10:43:58Z</time></trkpt>
<trkpt lat="46.22519142" lon="7.29510636"><ele></ele><time>2014-6-4T10:44:1Z</time></trkpt>
<trkpt lat="46.22494692" lon="7.29606500"><ele></ele><time>2014-6-4T10:44:4Z</time></trkpt>
<trkpt lat="46.22466403" lon="7.29701140"><ele></ele><time>2014-6-4T10:44:7Z</time></trkpt>
<trkpt lat="46.22464316" lon="7.29707435"><ele></ele><time>2014-6-4T10:44:10Z</time></trkpt>
<trkpt lat="46.22457904" lon="7.29720871"><ele></ele><time>2014-6-4T10:44:13Z</time></trkpt>
<trkpt lat="46.22449103" lon="7.29733913"><ele></ele><time>2014-6-4T10:44:16Z</time></trkpt>
<trkpt lat="46.22440930" lon="7.29771573"><ele></ele><time>2014-6-4T10:44:19Z</time></trkpt>
<trkpt lat="46.22434644" lon="7.29803156"><ele></ele><time>2014-6-4T10:44:22Z</time></trkpt>
<trkpt lat="46.22412818" lon="7.29893664"><ele></ele><time>2014-6-4T10:44:25Z</time></trkpt>
<trkpt lat="46.22401879" lon="7.29996719"><ele></ele><time>2014-6-4T10:44:28Z</time></trkpt>
<trkpt lat="46.22404209" lon="7.30098249"><ele></ele><time>2014-6-4T10:44:31Z</time></trkpt>
<trkpt lat="46.22413756" lon="7.30242728"><ele></ele><time>2014-6-4T10:44:34Z</time></trkpt>
<trkpt lat="46.22418961" lon="7.30330068"><ele></ele><time>2014-6-4T10:44:37Z</time></trkpt>
<trkpt lat="46.22437242" lon="7.30581885"><ele></ele><time>2014-6-4T10:44:40Z</time></trkpt>
<trkpt lat="46.22447410" lon="7.30730798"><ele></ele><time>2014-6-4T10:44:43Z</time></trkpt>
<trkpt lat="46.22459538" lon="7.30904295"><ele></ele><time>2014-6-4T10:44:46Z</time></trkpt>
<trkpt lat="46.22469010" lon="7.31044189"><ele></ele><time>2014-6-4T10:44:49Z</time></trkpt>
<trkpt lat="46.22474475" lon="7.31131738"><ele></ele><time>2014-6-4T10:44:52Z</time></trkpt>
<trkpt lat="46.22480493" lon="7.31218625"><ele></ele><time>2014-6-4T10:44:55Z</time></trkpt>
<trkpt lat="46.22480652" lon="7.31231256"><ele></ele><time>2014-6-4T10:44:58Z</time></trkpt>
<trkpt lat="46.22480636" lon="7.31233989"><ele></ele><time>2014-6-4T10:45:1Z</time></trkpt>
<trkpt lat="46.22584957" lon="7.31271707"><ele></ele><time>2014-6-4T10:45:4Z</time></trkpt>
<trkpt lat="46.22615215" lon="7.31269528"><ele></ele><time>2014-6-4T10:45:7Z</time></trkpt>
<trkpt lat="46.22628325" lon="7.31290558"><ele></ele><time>2014-6-4T10:45:10Z</time></trkpt>
<trkpt lat="46.22628794" lon="7.31301229"><ele></ele><time>2014-6-4T10:45:13Z</time></trkpt>
<trkpt lat="46.22629984" lon="7.31322946"><ele></ele><time>2014-6-4T10:45:16Z</time></trkpt>
<trkpt lat="46.22614260" lon="7.31345301"><ele></ele><time>2014-6-4T10:45:19Z</time></trkpt>
<trkpt lat="46.22606096" lon="7.31347388"><ele></ele><time>2014-6-4T10:45:22Z</time></trkpt>
<trkpt lat="46.22536249" lon="7.31351302"><ele></ele><time>2014-6-4T10:45:25Z</time></trkpt>
<trkpt lat="46.22523509" lon="7.31347262"><ele></ele><time>2014-6-4T10:45:28Z</time></trkpt>
<trkpt lat="46.22507240" lon="7.31334890"><ele></ele><time>2014-6-4T10:45:31Z</time></trkpt>
<trkpt lat="46.22490082" lon="7.31351092"><ele></ele><time>2014-6-4T10:45:34Z</time></trkpt>
<trkpt lat="46.22497056" lon="7.31368074"><ele></ele><time>2014-6-4T10:45:37Z</time></trkpt>
<trkpt lat="46.22534774" lon="7.31418047"><ele></ele><time>2014-6-4T10:45:40Z</time></trkpt>
<trkpt lat="46.22565938" lon="7.31458968"><ele></ele><time>2014-6-4T10:45:43Z</time></trkpt>
<trkpt lat="46.22574387" lon="7.31475052"><ele></ele><time>2014-6-4T10:45:46Z</time></trkpt>
<trkpt lat="46.22584630" lon="7.31493509"><ele></ele><time>2014-6-4T10:45:49Z</time></trkpt>
<trkpt lat="46.22594638" lon="7.31505420"><ele></ele><time>2014-6-4T10:45:52Z</time></trkpt>
<trkpt lat="46.22592366" lon="7.31520667"><ele></ele><time>2014-6-4T10:45:55Z</time></trkpt>
<trkpt lat="46.22583129" lon="7.31506040"><ele></ele><time>2014-6-4T10:45:58Z</time></trkpt>
<trkpt lat="46.22578997" lon="7.31499746"><ele></ele><time>2014-6-4T10:46:1Z</time></trkpt>
<trkpt lat="46.22561244" lon="7.31491665"><ele></ele><time>2014-6-4T10:46:4Z</time></trkpt>
<trkpt lat="46.22538144" lon="7.31508236"><ele></ele><time>2014-6-4T10:46:7Z</time></trkpt>
<trkpt lat="46.22529812" lon="7.31532661"><ele></ele><time>2014-6-4T10:46:10Z</time></trkpt>
<trkpt lat="46.22534883" lon="7.31550230"><ele></ele><time>2014-6-4T10:46:13Z</time></trkpt>
<trkpt lat="46.22546224" lon="7.31581260"><ele></ele><time>2014-6-4T10:46:16Z</time></trkpt>
<trkpt lat="46.22565544" lon="7.31627955"><ele></ele><time>2014-6-4T10:46:19Z</time></trkpt>
<trkpt lat="46.22592408" lon="7.31677593"><ele></ele><time>2014-6-4T10:46:22Z</time></trkpt>
<trkpt lat="46.22602223" lon="7.31709804"><ele></ele><time>2014-6-4T10:46:25Z</time></trkpt>
<trkpt lat="46.22617269" lon="7.31766122"><ele></ele><time>2014-6-4T10:46:28Z</time></trkpt>
<trkpt lat="46.22636640" lon="7.31807772"><ele></ele><time>2014-6-4T10:46:31Z</time></trkpt>
<trkpt lat="46.22655063" lon="7.31838156"><ele></ele><time>2014-6-4T10:46:34Z</time></trkpt>
<trkpt lat="46.22668667" lon="7.31875665"><ele></ele><time>2014-6-4T10:46:37Z</time></trkpt>
<trkpt lat="46.22674576" lon="7.31911498"><ele></ele><time>2014-6-4T10:46:40Z</time></trkpt>
<trkpt lat="46.22676169" lon="7.31956869"><ele></ele><time>2014-6-4T10:46:43Z</time></trkpt>
<trkpt lat="46.22677719" lon="7.31991872"><ele></ele><time>2014-6-4T10:46:46Z</time></trkpt>
<trkpt lat="46.22673788" lon="7.32020865"><ele></ele><time>2014-6-4T10:46:49Z</time></trkpt>
<trkpt lat="46.22659983" lon="7.32043262"><ele></ele><time>2014-6-4T10:46:52Z</time></trkpt>
<trkpt lat="46.22651601" lon="7.32073319"><ele></ele><time>2014-6-4T10:46:55Z</time></trkpt>
<trkpt lat="46.22647712" lon="7.32092053"><ele></ele><time>2014-6-4T10:46:58Z</time></trkpt>
<trkpt lat="46.22661022" lon="7.32099806"><ele></ele><time>2014-6-4T10:47:1Z</time></trkpt>
<trkpt lat="46.22668357" lon="7.32087795"><ele></ele><time>2014-6-4T10:47:4Z</time></trkpt>
<trkpt lat="46.22689337" lon="7.32055239"><ele></ele><time>2014-6-4T10:47:7Z</time></trkpt>
<trkpt lat="46.22707425" lon="7.32023011"><ele></ele><time>2014-6-4T10:47:10Z</time></trkpt>
<trkpt lat="46.22707852" lon="7.31991763"><ele></ele><time>2014-6-4T10:47:13Z</time></trkpt>
<trkpt lat="46.22715505" lon="7.31970624"><ele></ele><time>2014-6-4T10:47:16Z</time></trkpt>
<trkpt lat="46.22738605" lon="7.31958051"><ele></ele><time>2014-6-4T10:47:19Z</time></trkpt>
<trkpt lat="46.22760214" lon="7.31936937"><ele></ele><time>2014-6-4T10:47:22Z</time></trkpt>
<trkpt lat="46.22771488" lon="7.31937935"><ele></ele><time>2014-6-4T10:47:25Z</time></trkpt>
<trkpt lat="46.22800237" lon="7.31964078"><ele></ele><time>2014-6-4T10:47:28Z</time></trkpt>
<trkpt lat="46.22795099" lon="7.31972099"><ele></ele><time>2014-6-4T10:47:31Z</time></trkpt>
<trkpt lat="46.22780473" lon="7.31969987"><ele></ele><time>2014-6-4T10:47:34Z</time></trkpt>
<trkpt lat="46.22771169" lon="7.31977212"><ele></ele><time>2014-6-4T10:47:37Z</time></trkpt>
<trkpt lat="46.22757406" lon="7.31985074"><ele></ele><time>2014-6-4T10:47:40Z</time></trkpt>
<trkpt lat="46.22747054" lon="7.31999919"><ele></ele><time>2014-6-4T10:47:43Z</time></trkpt>
<trkpt lat="46.22749552" lon="7.32031443"><ele></ele><time>2014-6-4T10:47:46Z</time></trkpt>
<trkpt lat="46.22756517" lon="7.32061073"><ele></ele><time>2014-6-4T10:47:49Z</time></trkpt>
<trkpt lat="46.22767464" lon="7.32092455"><ele></ele><time>2014-6-4T10:47:52Z</time></trkpt>
<trkpt lat="46.22774136" lon="7.32119830"><ele></ele><time>2014-6-4T10:47:55Z</time></trkpt>
<trkpt lat="46.22765637" lon="7.32136217"><ele></ele><time>2014-6-4T10:47:58Z</time></trkpt>
<trkpt lat="46.22763416" lon="7.32161237"><ele></ele><time>2014-6-4T10:48:1Z</time></trkpt>
<trkpt lat="46.22763198" lon="7.32204831"><ele></ele><time>2014-6-4T10:48:4Z</time></trkpt>
<trkpt lat="46.22759451" lon="7.32252197"><ele></ele><time>2014-6-4T10:48:7Z</time></trkpt>
<trkpt lat="46.22766752" lon="7.32282867"><ele></ele><time>2014-6-4T10:48:10Z</time></trkpt>
<trkpt lat="46.22776584" lon="7.32311030"><ele></ele><time>2014-6-4T10:48:13Z</time></trkpt>
<trkpt lat="46.22778688" lon="7.32336503"><ele></ele><time>2014-6-4T10:48:16Z</time></trkpt>
<trkpt lat="46.22777883" lon="7.32420724"><ele></ele><time>2014-6-4T10:48:19Z</time></trkpt>
<trkpt lat="46.22782242" lon="7.32471476"><ele></ele><time>2014-6-4T10:48:22Z</time></trkpt>
<trkpt lat="46.22789416" lon="7.32500670"><ele></ele><time>2014-6-4T10:48:25Z</time></trkpt>
<trkpt lat="46.22799994" lon="7.32532245"><ele></ele><time>2014-6-4T10:48:28Z</time></trkpt>
<trkpt lat="46.22808611" lon="7.32562470"><ele></ele><time>2014-6-4T10:48:31Z</time></trkpt>
<trkpt lat="46.22807882" lon="7.32603709"><ele></ele><time>2014-6-4T10:48:34Z</time></trkpt>
<trkpt lat="46.22816029" lon="7.32634613"><ele></ele><time>2014-6-4T10:48:37Z</time></trkpt>
<trkpt lat="46.22819826" lon="7.32659038"><ele></ele><time>2014-6-4T10:48:40Z</time></trkpt>
<trkpt lat="46.22818066" lon="7.32670245"><ele></ele><time>2014-6-4T10:48:43Z</time></trkpt>
<trkpt lat="46.22823724" lon="7.32680043"><ele></ele><time>2014-6-4T10:48:46Z</time></trkpt>
<trkpt lat="46.22833396" lon="7.32702549"><ele></ele><time>2014-6-4T10:48:49Z</time></trkpt>
<trkpt lat="46.22838702" lon="7.32723998"><ele></ele><time>2014-6-4T10:48:52Z</time></trkpt>
<trkpt lat="46.22838266" lon="7.32744265"><ele></ele><time>2014-6-4T10:48:55Z</time></trkpt>
<trkpt lat="46.22844846" lon="7.32760987"><ele></ele><time>2014-6-4T10:48:58Z</time></trkpt>
<trkpt lat="46.22851015" lon="7.32780743"><ele></ele><time>2014-6-4T10:49:1Z</time></trkpt>
<trkpt lat="46.22857637" lon="7.32803517"><ele></ele><time>2014-6-4T10:49:4Z</time></trkpt>
<trkpt lat="46.22864912" lon="7.32827934"><ele></ele><time>2014-6-4T10:49:7Z</time></trkpt>
<trkpt lat="46.22869531" lon="7.32858284"><ele></ele><time>2014-6-4T10:49:10Z</time></trkpt>
<trkpt lat="46.22872288" lon="7.32881946"><ele></ele><time>2014-6-4T10:49:13Z</time></trkpt>
<trkpt lat="46.22875180" lon="7.32906774"><ele></ele><time>2014-6-4T10:49:16Z</time></trkpt>
<trkpt lat="46.22885968" lon="7.32951952"><ele></ele><time>2014-6-4T10:49:19Z</time></trkpt>
<trkpt lat="46.22890770" lon="7.32983292"><ele></ele><time>2014-6-4T10:49:22Z</time></trkpt>
<trkpt lat="46.22895791" lon="7.32999905"><ele></ele><time>2014-6-4T10:49:25Z</time></trkpt>
<trkpt lat="46.22909110" lon="7.32996745"><ele></ele><time>2014-6-4T10:49:28Z</time></trkpt>
<trkpt lat="46.22917752" lon="7.32991900"><ele></ele><time>2014-6-4T10:49:31Z</time></trkpt>
<trkpt lat="46.22924675" lon="7.32972421"><ele></ele><time>2014-6-4T10:49:34Z</time></trkpt>
<trkpt lat="46.22927265" lon="7.32947275"><ele></ele><time>2014-6-4T10:49:37Z</time></trkpt>
<trkpt lat="46.22930869" lon="7.32910395"><ele></ele><time>2014-6-4T10:49:40Z</time></trkpt>
<trkpt lat="46.22927944" lon="7.32854798"><ele></ele><time>2014-6-4T10:49:43Z</time></trkpt>
<trkpt lat="46.22927684" lon="7.32835955"><ele></ele><time>2014-6-4T10:49:46Z</time></trkpt>
<trkpt lat="46.22937625" lon="7.32810348"><ele></ele><time>2014-6-4T10:49:49Z</time></trkpt>
<trkpt lat="46.22944197" lon="7.32803525"><ele></ele><time>2014-6-4T10:49:52Z</time></trkpt>
<trkpt lat="46.22950424" lon="7.32770065"><ele></ele><time>2014-6-4T10:49:55Z</time></trkpt>
<trkpt lat="46.22949553" lon="7.32753117"><ele></ele><time>2014-6-4T10:49:58Z</time></trkpt>
<trkpt lat="46.22958639" lon="7.32727937"><ele></ele><time>2014-6-4T10:50:1Z</time></trkpt>
<trkpt lat="46.22975931" lon="7.32729941"><ele></ele><time>2014-6-4T10:50:4Z</time></trkpt>
<trkpt lat="46.22984396" lon="7.32734601"><ele></ele><time>2014-6-4T10:50:7Z</time></trkpt>
<trkpt lat="46.23003272" lon="7.32729362"><ele></ele><time>2014-6-4T10:50:10Z</time></trkpt>
<trkpt lat="46.23020514" lon="7.32730058"><ele></ele><time>2014-6-4T10:50:13Z</time></trkpt>
<trkpt lat="46.23040739" lon="7.32752915"><ele></ele><time>2014-6-4T10:50:16Z</time></trkpt>
<trkpt lat="46.23058107" lon="7.32784901"><ele></ele><time>2014-6-4T10:50:19Z</time></trkpt>
<trkpt lat="46.23064511" lon="7.32803157"><ele></ele><time>2014-6-4T10:50:22Z</time></trkpt>
<trkpt lat="46.23080034" lon="7.32874478"><ele></ele><time>2014-6-4T10:50:25Z</time></trkpt>
<trkpt lat="46.23083387" lon="7.32892583"><ele></ele><time>2014-6-4T10:50:28Z</time></trkpt>
<trkpt lat="46.23098457" lon="7.32941316"><ele></ele><time>2014-6-4T10:50:31Z</time></trkpt>
<trkpt lat="46.23123569" lon="7.33017775"><ele></ele><time>2014-6-4T10:50:34Z</time></trkpt>
<trkpt lat="46.23135363" lon="7.33044698"><ele></ele><time>2014-6-4T10:50:37Z</time></trkpt>
<trkpt lat="46.23150165" lon="7.33085509"><ele></ele><time>2014-6-4T10:50:40Z</time></trkpt>
<trkpt lat="46.23152378" lon="7.33100496"><ele></ele><time>2014-6-4T10:50:43Z</time></trkpt>
<trkpt lat="46.23155404" lon="7.33118769"><ele></ele><time>2014-6-4T10:50:46Z</time></trkpt>
<trkpt lat="46.23164046" lon="7.33138793"><ele></ele><time>2014-6-4T10:50:49Z</time></trkpt>
<trkpt lat="46.23192661" lon="7.33141501"><ele></ele><time>2014-6-4T10:50:52Z</time></trkpt>
<trkpt lat="46.23203550" lon="7.33162874"><ele></ele><time>2014-6-4T10:50:55Z</time></trkpt>
<trkpt lat="46.23206701" lon="7.33168767"><ele></ele><time>2014-6-4T10:50:58Z</time></trkpt>
<trkpt lat="46.23235040" lon="7.33206091"><ele></ele><time>2014-6-4T10:51:1Z</time></trkpt>
<trkpt lat="46.23250748" lon="7.33218681"><ele></ele><time>2014-6-4T10:51:4Z</time></trkpt>
<trkpt lat="46.23275064" lon="7.33261663"><ele></ele><time>2014-6-4T10:51:7Z</time></trkpt>
<trkpt lat="46.23304501" lon="7.33322566"><ele></ele><time>2014-6-4T10:51:10Z</time></trkpt>
<trkpt lat="46.23328624" lon="7.33369522"><ele></ele><time>2014-6-4T10:51:13Z</time></trkpt>
<trkpt lat="46.23358648" lon="7.33437474"><ele></ele><time>2014-6-4T10:51:16Z</time></trkpt>
<trkpt lat="46.23393777" lon="7.33508276"><ele></ele><time>2014-6-4T10:51:19Z</time></trkpt>
<trkpt lat="46.23430808" lon="7.33559984"><ele></ele><time>2014-6-4T10:51:22Z</time></trkpt>
<trkpt lat="46.23455510" lon="7.33598071"><ele></ele><time>2014-6-4T10:51:25Z</time></trkpt>
<trkpt lat="46.23464478" lon="7.33632806"><ele></ele><time>2014-6-4T10:51:28Z</time></trkpt>
<trkpt lat="46.23463917" lon="7.33652168"><ele></ele><time>2014-6-4T10:51:31Z</time></trkpt>
<trkpt lat="46.23473665" lon="7.33735451"><ele></ele><time>2014-6-4T10:51:34Z</time></trkpt>
<trkpt lat="46.23480295" lon="7.33798172"><ele></ele><time>2014-6-4T10:51:37Z</time></trkpt>
<trkpt lat="46.23490001" lon="7.33852655"><ele></ele><time>2014-6-4T10:51:40Z</time></trkpt>
<trkpt lat="46.23494536" lon="7.33866510"><ele></ele><time>2014-6-4T10:51:43Z</time></trkpt>
<trkpt lat="46.23494829" lon="7.33906567"><ele></ele><time>2014-6-4T10:51:46Z</time></trkpt>
<trkpt lat="46.23494904" lon="7.33923675"><ele></ele><time>2014-6-4T10:51:49Z</time></trkpt>
<trkpt lat="46.23504946" lon="7.33914731"><ele></ele><time>2014-6-4T10:51:52Z</time></trkpt>
<trkpt lat="46.23509506" lon="7.33849386"><ele></ele><time>2014-6-4T10:51:55Z</time></trkpt>
<trkpt lat="46.23515633" lon="7.33786874"><ele></ele><time>2014-6-4T10:51:58Z</time></trkpt>
<trkpt lat="46.23532866" lon="7.33760756"><ele></ele><time>2014-6-4T10:52:1Z</time></trkpt>
<trkpt lat="46.23543469" lon="7.33766807"><ele></ele><time>2014-6-4T10:52:4Z</time></trkpt>
<trkpt lat="46.23546462" lon="7.33780948"><ele></ele><time>2014-6-4T10:52:7Z</time></trkpt>
<trkpt lat="46.23556545" lon="7.33817602"><ele></ele><time>2014-6-4T10:52:10Z</time></trkpt>
<trkpt lat="46.23583426" lon="7.33844499"><ele></ele><time>2014-6-4T10:52:13Z</time></trkpt>
<trkpt lat="46.23625528" lon="7.33871841"><ele></ele><time>2014-6-4T10:52:16Z</time></trkpt>
<trkpt lat="46.23669617" lon="7.33876535"><ele></ele><time>2014-6-4T10:52:19Z</time></trkpt>
<trkpt lat="46.23706648" lon="7.33881773"><ele></ele><time>2014-6-4T10:52:22Z</time></trkpt>
<trkpt lat="46.23757627" lon="7.33894338"><ele></ele><time>2014-6-4T10:52:25Z</time></trkpt>
<trkpt lat="46.23797835" lon="7.33893433"><ele></ele><time>2014-6-4T10:52:28Z</time></trkpt>
<trkpt lat="46.23807851" lon="7.33871690"><ele></ele><time>2014-6-4T10:52:31Z</time></trkpt>
<trkpt lat="46.23809234" lon="7.33821466"><ele></ele><time>2014-6-4T10:52:34Z</time></trkpt>
<trkpt lat="46.23810500" lon="7.33793160"><ele></ele><time>2014-6-4T10:52:37Z</time></trkpt>
<trkpt lat="46.23812822" lon="7.33749264"><ele></ele><time>2014-6-4T10:52:40Z</time></trkpt>
<trkpt lat="46.23814389" lon="7.33745601"><ele></ele><time>2014-6-4T10:52:43Z</time></trkpt>
<trkpt lat="46.23828856" lon="7.33743598"><ele></ele><time>2014-6-4T10:52:46Z</time></trkpt>
<trkpt lat="46.23840951" lon="7.33756028"><ele></ele><time>2014-6-4T10:52:49Z</time></trkpt>
<trkpt lat="46.23863339" lon="7.33779271"><ele></ele><time>2014-6-4T10:52:52Z</time></trkpt>
<trkpt lat="46.23888670" lon="7.33786748"><ele></ele><time>2014-6-4T10:52:55Z</time></trkpt>
<trkpt lat="46.23915634" lon="7.33770168"><ele></ele><time>2014-6-4T10:52:58Z</time></trkpt>
<trkpt lat="46.23935340" lon="7.33757688"><ele></ele><time>2014-6-4T10:53:1Z</time></trkpt>
<trkpt lat="46.23945633" lon="7.33752223"><ele></ele><time>2014-6-4T10:53:4Z</time></trkpt>
<trkpt lat="46.23965230" lon="7.33728435"><ele></ele><time>2014-6-4T10:53:7Z</time></trkpt>
<trkpt lat="46.23988825" lon="7.33703096"><ele></ele><time>2014-6-4T10:53:10Z</time></trkpt>
<trkpt lat="46.24010802" lon="7.33655102"><ele></ele><time>2014-6-4T10:53:13Z</time></trkpt>
<trkpt lat="46.24033123" lon="7.33636418"><ele></ele><time>2014-6-4T10:53:16Z</time></trkpt>
<trkpt lat="46.24041011" lon="7.33634491"><ele></ele><time>2014-6-4T10:53:19Z</time></trkpt>
<trkpt lat="46.24079433" lon="7.33641347"><ele></ele><time>2014-6-4T10:53:22Z</time></trkpt>
<trkpt lat="46.24105182" lon="7.33647357"><ele></ele><time>2014-6-4T10:53:25Z</time></trkpt>
<trkpt lat="46.24130328" lon="7.33635907"><ele></ele><time>2014-6-4T10:53:28Z</time></trkpt>
<trkpt lat="46.24133949" lon="7.33631507"><ele></ele><time>2014-6-4T10:53:31Z</time></trkpt>
<trkpt lat="46.24152850" lon="7.33599739"><ele></ele><time>2014-6-4T10:53:34Z</time></trkpt>
<trkpt lat="46.24159212" lon="7.33560889"><ele></ele><time>2014-6-4T10:53:37Z</time></trkpt>
<trkpt lat="46.24156237" lon="7.33521008"><ele></ele><time>2014-6-4T10:53:40Z</time></trkpt>
<trkpt lat="46.24145650" lon="7.33466936"><ele></ele><time>2014-6-4T10:53:43Z</time></trkpt>
<trkpt lat="46.24138283" lon="7.33436812"><ele></ele><time>2014-6-4T10:53:46Z</time></trkpt>
<trkpt lat="46.24132072" lon="7.33391751"><ele></ele><time>2014-6-4T10:53:49Z</time></trkpt>
<trkpt lat="46.24141200" lon="7.33346086"><ele></ele><time>2014-6-4T10:53:52Z</time></trkpt>
<trkpt lat="46.24162632" lon="7.33290464"><ele></ele><time>2014-6-4T10:53:55Z</time></trkpt>
<trkpt lat="46.24181760" lon="7.33255067"><ele></ele><time>2014-6-4T10:53:58Z</time></trkpt>
<trkpt lat="46.24188792" lon="7.33241421"><ele></ele><time>2014-6-4T10:54:1Z</time></trkpt>
<trkpt lat="46.24211851" lon="7.33202848"><ele></ele><time>2014-6-4T10:54:4Z</time></trkpt>
<trkpt lat="46.24222068" lon="7.33188867"><ele></ele><time>2014-6-4T10:54:7Z</time></trkpt>
<trkpt lat="46.24234725" lon="7.33197810"><ele></ele><time>2014-6-4T10:54:10Z</time></trkpt>
<trkpt lat="46.24238371" lon="7.33208681"><ele></ele><time>2014-6-4T10:54:13Z</time></trkpt>
<trkpt lat="46.24249754" lon="7.33245897"><ele></ele><time>2014-6-4T10:54:16Z</time></trkpt>
<trkpt lat="46.24254188" lon="7.33259803"><ele></ele><time>2014-6-4T10:54:19Z</time></trkpt>
<trkpt lat="46.24265713" lon="7.33277908"><ele></ele><time>2014-6-4T10:54:22Z</time></trkpt>
<trkpt lat="46.24280465" lon="7.33300069"><ele></ele><time>2014-6-4T10:54:25Z</time></trkpt>
<trkpt lat="46.24290263" lon="7.33324679"><ele></ele><time>2014-6-4T10:54:28Z</time></trkpt>
<trkpt lat="46.24298603" lon="7.33360779"><ele></ele><time>2014-6-4T10:54:31Z</time></trkpt>
<trkpt lat="46.24295519" lon="7.33388985"><ele></ele><time>2014-6-4T10:54:34Z</time></trkpt>
<trkpt lat="46.24302157" lon="7.33408330"><ele></ele><time>2014-6-4T10:54:37Z</time></trkpt>
<trkpt lat="46.24336037" lon="7.33446610"><ele></ele><time>2014-6-4T10:54:40Z</time></trkpt>
<trkpt lat="46.24369992" lon="7.33476399"><ele></ele><time>2014-6-4T10:54:43Z</time></trkpt>
<trkpt lat="46.24407593" lon="7.33491655"><ele></ele><time>2014-6-4T10:54:46Z</time></trkpt>
<trkpt lat="46.24415464" lon="7.33459468"><ele></ele><time>2014-6-4T10:54:49Z</time></trkpt>
<trkpt lat="46.24425614" lon="7.33421632"><ele></ele><time>2014-6-4T10:54:52Z</time></trkpt>
<trkpt lat="46.24437542" lon="7.33372606"><ele></ele><time>2014-6-4T10:54:55Z</time></trkpt>
<trkpt lat="46.24441154" lon="7.33307077"><ele></ele><time>2014-6-4T10:54:58Z</time></trkpt>
<trkpt lat="46.24445404" lon="7.33245729"><ele></ele><time>2014-6-4T10:55:1Z</time></trkpt>
<trkpt lat="46.24442847" lon="7.33198204"><ele></ele><time>2014-6-4T10:55:4Z</time></trkpt>
<trkpt lat="46.24434759" lon="7.33142875"><ele></ele><time>2014-6-4T10:55:7Z</time></trkpt>
<trkpt lat="46.24429772" lon="7.33104293"><ele></ele><time>2014-6-4T10:55:10Z</time></trkpt>
<trkpt lat="46.24431012" lon="7.33072115"><ele></ele><time>2014-6-4T10:55:13Z</time></trkpt>
<trkpt lat="46.24431557" lon="7.33060347"><ele></ele><time>2014-6-4T10:55:16Z</time></trkpt>
<trkpt lat="46.24434130" lon="7.33034573"><ele></ele><time>2014-6-4T10:55:19Z</time></trkpt>
<trkpt lat="46.24435773" lon="7.33005898"><ele></ele><time>2014-6-4T10:55:22Z</time></trkpt>
<trkpt lat="46.24436712" lon="7.32984432"><ele></ele><time>2014-6-4T10:55:25Z</time></trkpt>
<trkpt lat="46.24437902" lon="7.32965564"><ele></ele><time>2014-6-4T10:55:28Z</time></trkpt>
<trkpt lat="46.24438405" lon="7.32937267"><ele></ele><time>2014-6-4T10:55:31Z</time></trkpt>
<trkpt lat="46.24439612" lon="7.32904259"><ele></ele><time>2014-6-4T10:55:34Z</time></trkpt>
<trkpt lat="46.24437232" lon="7.32871251"><ele></ele><time>2014-6-4T10:55:37Z</time></trkpt>
<trkpt lat="46.24430551" lon="7.32841487"><ele></ele><time>2014-6-4T10:55:40Z</time></trkpt>
<trkpt lat="46.24428875" lon="7.32827716"><ele></ele><time>2014-6-4T10:55:43Z</time></trkpt>
<trkpt lat="46.24436419" lon="7.32829710"><ele></ele><time>2014-6-4T10:55:46Z</time></trkpt>
<trkpt lat="46.24450207" lon="7.32853507"><ele></ele><time>2014-6-4T10:55:49Z</time></trkpt>
<trkpt lat="46.24464657" lon="7.32891460"><ele></ele><time>2014-6-4T10:55:52Z</time></trkpt>
<trkpt lat="46.24464029" lon="7.32932137"><ele></ele><time>2014-6-4T10:55:55Z</time></trkpt>
<trkpt lat="46.24464615" lon="7.32974173"><ele></ele><time>2014-6-4T10:55:58Z</time></trkpt>
<trkpt lat="46.24466334" lon="7.32981322"><ele></ele><time>2014-6-4T10:56:1Z</time></trkpt>
<trkpt lat="46.24492133" lon="7.33047682"><ele></ele><time>2014-6-4T10:56:4Z</time></trkpt>
<trkpt lat="46.24517363" lon="7.33083967"><ele></ele><time>2014-6-4T10:56:7Z</time></trkpt>
<trkpt lat="46.24558023" lon="7.33128685"><ele></ele><time>2014-6-4T10:56:10Z</time></trkpt>
<trkpt lat="46.24581434" lon="7.33170762"><ele></ele><time>2014-6-4T10:56:13Z</time></trkpt>
<trkpt lat="46.24605917" lon="7.33205102"><ele></ele><time>2014-6-4T10:56:16Z</time></trkpt>
<trkpt lat="46.24629102" lon="7.33251303"><ele></ele><time>2014-6-4T10:56:19Z</time></trkpt>
<trkpt lat="46.24668430" lon="7.33317696"><ele></ele><time>2014-6-4T10:56:22Z</time></trkpt>
<trkpt lat="46.24673685" lon="7.33329976"><ele></ele><time>2014-6-4T10:56:25Z</time></trkpt>
<trkpt lat="46.24676459" lon="7.33352867"><ele></ele><time>2014-6-4T10:56:28Z</time></trkpt>
<trkpt lat="46.24685512" lon="7.33389487"><ele></ele><time>2014-6-4T10:56:31Z</time></trkpt>
<trkpt lat="46.24721454" lon="7.33462075"><ele></ele><time>2014-6-4T10:56:34Z</time></trkpt>
<trkpt lat="46.24749491" lon="7.33514252"><ele></ele><time>2014-6-4T10:56:37Z</time></trkpt>
<trkpt lat="46.24772457" lon="7.33553454"><ele></ele><time>2014-6-4T10:56:40Z</time></trkpt>
<trkpt lat="46.24789146" lon="7.33555390"><ele></ele><time>2014-6-4T10:56:43Z</time></trkpt>
<trkpt lat="46.24821902" lon="7.33526238"><ele></ele><time>2014-6-4T10:56:46Z</time></trkpt>
<trkpt lat="46.24852287" lon="7.33520010"><ele></ele><time>2014-6-4T10:56:49Z</time></trkpt>
<trkpt lat="46.24883694" lon="7.33532013"><ele></ele><time>2014-6-4T10:56:52Z</time></trkpt>
<trkpt lat="46.24911396" lon="7.33531997"><ele></ele><time>2014-6-4T10:56:55Z</time></trkpt>
<trkpt lat="46.24926567" lon="7.33529792"><ele></ele><time>2014-6-4T10:56:58Z</time></trkpt>
<trkpt lat="46.24928319" lon="7.33526624"><ele></ele><time>2014-6-4T10:57:1Z</time></trkpt>
<trkpt lat="46.24893727" lon="7.33380083"><ele></ele><time>2014-6-4T10:57:4Z</time></trkpt>
<trkpt lat="46.24859805" lon="7.33303481"><ele></ele><time>2014-6-4T10:57:7Z</time></trkpt>
<trkpt lat="46.24844332" lon="7.33267506"><ele></ele><time>2014-6-4T10:57:10Z</time></trkpt>
<trkpt lat="46.24835397" lon="7.33202646"><ele></ele><time>2014-6-4T10:57:13Z</time></trkpt>
<trkpt lat="46.24819865" lon="7.33067597"><ele></ele><time>2014-6-4T10:57:16Z</time></trkpt>
<trkpt lat="46.24813520" lon="7.33033014"><ele></ele><time>2014-6-4T10:57:19Z</time></trkpt>
<trkpt lat="46.24779448" lon="7.32948977"><ele></ele><time>2014-6-4T10:57:22Z</time></trkpt>
<trkpt lat="46.24741905" lon="7.32849165"><ele></ele><time>2014-6-4T10:57:25Z</time></trkpt>
<trkpt lat="46.24711253" lon="7.32730418"><ele></ele><time>2014-6-4T10:57:28Z</time></trkpt>
<trkpt lat="46.24694875" lon="7.32622116"><ele></ele><time>2014-6-4T10:57:31Z</time></trkpt>
<trkpt lat="46.24691555" lon="7.32497569"><ele></ele><time>2014-6-4T10:57:34Z</time></trkpt>
<trkpt lat="46.24693793" lon="7.32421327"><ele></ele><time>2014-6-4T10:57:37Z</time></trkpt>
<trkpt lat="46.24711739" lon="7.32365873"><ele></ele><time>2014-6-4T10:57:40Z</time></trkpt>
<trkpt lat="46.24735971" lon="7.32314005"><ele></ele><time>2014-6-4T10:57:43Z</time></trkpt>
<trkpt lat="46.24754478" lon="7.32231628"><ele></ele><time>2014-6-4T10:57:46Z</time></trkpt>
<trkpt lat="46.24783664" lon="7.32152537"><ele></ele><time>2014-6-4T10:57:49Z</time></trkpt>
<trkpt lat="46.24797117" lon="7.32124968"><ele></ele><time>2014-6-4T10:57:52Z</time></trkpt>
<trkpt lat="46.24798995" lon="7.32096177"><ele></ele><time>2014-6-4T10:57:55Z</time></trkpt>
<trkpt lat="46.24775190" lon="7.32033572"><ele></ele><time>2014-6-4T10:57:58Z</time></trkpt>
<trkpt lat="46.24749566" lon="7.31963139"><ele></ele><time>2014-6-4T10:58:1Z</time></trkpt>
<trkpt lat="46.24682369" lon="7.31535402"><ele></ele><time>2014-6-4T10:58:4Z</time></trkpt>
<trkpt lat="46.24695654" lon="7.31440485"><ele></ele><time>2014-6-4T10:58:7Z</time></trkpt>
<trkpt lat="46.24718310" lon="7.31414166"><ele></ele><time>2014-6-4T10:58:10Z</time></trkpt>
<trkpt lat="46.24738997" lon="7.31393212"><ele></ele><time>2014-6-4T10:58:13Z</time></trkpt>
<trkpt lat="46.24727874" lon="7.31376347"><ele></ele><time>2014-6-4T10:58:16Z</time></trkpt>
<trkpt lat="46.24720003" lon="7.31369566"><ele></ele><time>2014-6-4T10:58:19Z</time></trkpt>
<trkpt lat="46.24693726" lon="7.31349835"><ele></ele><time>2014-6-4T10:58:22Z</time></trkpt>
<trkpt lat="46.24659008" lon="7.31363598"><ele></ele><time>2014-6-4T10:58:25Z</time></trkpt>
<trkpt lat="46.24652378" lon="7.31373774"><ele></ele><time>2014-6-4T10:58:28Z</time></trkpt>
<trkpt lat="46.24625145" lon="7.31416136"><ele></ele><time>2014-6-4T10:58:31Z</time></trkpt>
<trkpt lat="46.24606781" lon="7.31472421"><ele></ele><time>2014-6-4T10:58:34Z</time></trkpt>
<trkpt lat="46.24588961" lon="7.31591142"><ele></ele><time>2014-6-4T10:58:37Z</time></trkpt>
<trkpt lat="46.24567721" lon="7.31677467"><ele></ele><time>2014-6-4T10:58:40Z</time></trkpt>
<trkpt lat="46.24562189" lon="7.31713811"><ele></ele><time>2014-6-4T10:58:43Z</time></trkpt>
<trkpt lat="46.24562608" lon="7.31749526"><ele></ele><time>2014-6-4T10:58:46Z</time></trkpt>
<trkpt lat="46.24550069" lon="7.31748411"><ele></ele><time>2014-6-4T10:58:49Z</time></trkpt>
<trkpt lat="46.24516197" lon="7.31536827"><ele></ele><time>2014-6-4T10:58:52Z</time></trkpt>
<trkpt lat="46.24475244" lon="7.31379021"><ele></ele><time>2014-6-4T10:58:55Z</time></trkpt>
<trkpt lat="46.24460139" lon="7.31321622"><ele></ele><time>2014-6-4T10:58:58Z</time></trkpt>
<trkpt lat="46.24466292" lon="7.31286409"><ele></ele><time>2014-6-4T10:59:1Z</time></trkpt>
<trkpt lat="46.24472293" lon="7.31280492"><ele></ele><time>2014-6-4T10:59:4Z</time></trkpt>
<trkpt lat="46.24430719" lon="7.31261138"><ele></ele><time>2014-6-4T10:59:7Z</time></trkpt>
<trkpt lat="46.24410409" lon="7.31293593"><ele></ele><time>2014-6-4T10:59:10Z</time></trkpt>
<trkpt lat="46.24408825" lon="7.31306484"><ele></ele><time>2014-6-4T10:59:13Z</time></trkpt>
<trkpt lat="46.24400879" lon="7.31364143"><ele></ele><time>2014-6-4T10:59:16Z</time></trkpt>
<trkpt lat="46.24405380" lon="7.31428935"><ele></ele><time>2014-6-4T10:59:19Z</time></trkpt>
<trkpt lat="46.24392313" lon="7.31488891"><ele></ele><time>2014-6-4T10:59:22Z</time></trkpt>
<trkpt lat="46.24386949" lon="7.31527649"><ele></ele><time>2014-6-4T10:59:25Z</time></trkpt>
<trkpt lat="46.24389463" lon="7.31541311"><ele></ele><time>2014-6-4T10:59:28Z</time></trkpt>
<trkpt lat="46.24406990" lon="7.31650368"><ele></ele><time>2014-6-4T10:59:31Z</time></trkpt>
<trkpt lat="46.24423997" lon="7.31745897"><ele></ele><time>2014-6-4T10:59:34Z</time></trkpt>
<trkpt lat="46.24405825" lon="7.31795358"><ele></ele><time>2014-6-4T10:59:37Z</time></trkpt>
<trkpt lat="46.24396294" lon="7.31804704"><ele></ele><time>2014-6-4T10:59:40Z</time></trkpt>
<trkpt lat="46.24355860" lon="7.31842280"><ele></ele><time>2014-6-4T10:59:43Z</time></trkpt>
<trkpt lat="46.24311880" lon="7.31836514"><ele></ele><time>2014-6-4T10:59:46Z</time></trkpt>
<trkpt lat="46.24268009" lon="7.31807110"><ele></ele><time>2014-6-4T10:59:49Z</time></trkpt>
<trkpt lat="46.24208917" lon="7.31783842"><ele></ele><time>2014-6-4T10:59:52Z</time></trkpt>
<trkpt lat="46.24172489" lon="7.31781361"><ele></ele><time>2014-6-4T10:59:55Z</time></trkpt>
<trkpt lat="46.24146304" lon="7.31756366"><ele></ele><time>2014-6-4T10:59:58Z</time></trkpt>
<trkpt lat="46.24142247" lon="7.31716560"><ele></ele><time>2014-6-4T11:0:1Z</time></trkpt>
<trkpt lat="46.24155826" lon="7.31698883"><ele></ele><time>2014-6-4T11:0:4Z</time></trkpt>
<trkpt lat="46.24162976" lon="7.31670015"><ele></ele><time>2014-6-4T11:0:7Z</time></trkpt>
<trkpt lat="46.24150059" lon="7.31656487"><ele></ele><time>2014-6-4T11:0:10Z</time></trkpt>
<trkpt lat="46.24141376" lon="7.31651559"><ele></ele><time>2014-6-4T11:0:13Z</time></trkpt>
<trkpt lat="46.24114805" lon="7.31636161"><ele></ele><time>2014-6-4T11:0:16Z</time></trkpt>
<trkpt lat="46.24090875" lon="7.31646831"><ele></ele><time>2014-6-4T11:0:19Z</time></trkpt>
<trkpt lat="46.24064539" lon="7.31658214"><ele></ele><time>2014-6-4T11:0:22Z</time></trkpt>
<trkpt lat="46.24032696" lon="7.31644484"><ele></ele><time>2014-6-4T11:0:25Z</time></trkpt>
<trkpt lat="46.23990661" lon="7.31624912"><ele></ele><time>2014-6-4T11:0:28Z</time></trkpt>
<trkpt lat="46.23964509" lon="7.31619607"><ele></ele><time>2014-6-4T11:0:31Z</time></trkpt>
<trkpt lat="46.23956186" lon="7.31608484"><ele></ele><time>2014-6-4T11:0:34Z</time></trkpt>
<trkpt lat="46.23961911" lon="7.31588971"><ele></ele><time>2014-6-4T11:0:37Z</time></trkpt>
<trkpt lat="46.23967510" lon="7.31579072"><ele></ele><time>2014-6-4T11:0:40Z</time></trkpt>
<trkpt lat="46.23979529" lon="7.31557924"><ele></ele><time>2014-6-4T11:0:43Z</time></trkpt>
<trkpt lat="46.24030030" lon="7.31505856"><ele></ele><time>2014-6-4T11:0:46Z</time></trkpt>
<trkpt lat="46.23945482" lon="7.31427980"><ele></ele><time>2014-6-4T11:0:49Z</time></trkpt>
<trkpt lat="46.23917118" lon="7.31408659"><ele></ele><time>2014-6-4T11:0:52Z</time></trkpt>
<trkpt lat="46.23874873" lon="7.31404745"><ele></ele><time>2014-6-4T11:0:55Z</time></trkpt>
<trkpt lat="46.23853533" lon="7.31409732"><ele></ele><time>2014-6-4T11:0:58Z</time></trkpt>
<trkpt lat="46.23786796" lon="7.31401107"><ele></ele><time>2014-6-4T11:1:1Z</time></trkpt>
<trkpt lat="46.23719783" lon="7.31397830"><ele></ele><time>2014-6-4T11:1:4Z</time></trkpt>
<trkpt lat="46.23675861" lon="7.31375492"><ele></ele><time>2014-6-4T11:1:7Z</time></trkpt>
<trkpt lat="46.23575144" lon="7.31285580"><ele></ele><time>2014-6-4T11:1:10Z</time></trkpt>
<trkpt lat="46.23497997" lon="7.31218415"><ele></ele><time>2014-6-4T11:1:13Z</time></trkpt>
<trkpt lat="46.23471837" lon="7.31184762"><ele></ele><time>2014-6-4T11:1:16Z</time></trkpt>
<trkpt lat="46.23426525" lon="7.31170588"><ele></ele><time>2014-6-4T11:1:19Z</time></trkpt>
<trkpt lat="46.23414874" lon="7.31175383"><ele></ele><time>2014-6-4T11:1:22Z</time></trkpt>
<trkpt lat="46.23330837" lon="7.31212866"><ele></ele><time>2014-6-4T11:1:25Z</time></trkpt>
<trkpt lat="46.23277654" lon="7.31235607"><ele></ele><time>2014-6-4T11:1:28Z</time></trkpt>
<trkpt lat="46.23247605" lon="7.31224719"><ele></ele><time>2014-6-4T11:1:31Z</time></trkpt>
<trkpt lat="46.23241050" lon="7.31202230"><ele></ele><time>2014-6-4T11:1:34Z</time></trkpt>
<trkpt lat="46.23222250" lon="7.31131847"><ele></ele><time>2014-6-4T11:1:37Z</time></trkpt>
<trkpt lat="46.23219400" lon="7.31121018"><ele></ele><time>2014-6-4T11:1:40Z</time></trkpt>
<trkpt lat="46.23198395" lon="7.31086635"><ele></ele><time>2014-6-4T11:1:43Z</time></trkpt>
<trkpt lat="46.23154926" lon="7.30988768"><ele></ele><time>2014-6-4T11:1:46Z</time></trkpt>
<trkpt lat="46.23153040" lon="7.30915334"><ele></ele><time>2014-6-4T11:1:49Z</time></trkpt>
<trkpt lat="46.23152462" lon="7.30904002"><ele></ele><time>2014-6-4T11:1:52Z</time></trkpt>
<trkpt lat="46.23096311" lon="7.30760931"><ele></ele><time>2014-6-4T11:1:55Z</time></trkpt>
<trkpt lat="46.23076916" lon="7.30669526"><ele></ele><time>2014-6-4T11:1:58Z</time></trkpt>
<trkpt lat="46.23063111" lon="7.30598892"><ele></ele><time>2014-6-4T11:2:1Z</time></trkpt>
<trkpt lat="46.23044947" lon="7.30544653"><ele></ele><time>2014-6-4T11:2:4Z</time></trkpt>
<trkpt lat="46.23029759" lon="7.30478536"><ele></ele><time>2014-6-4T11:2:7Z</time></trkpt>
<trkpt lat="46.23010917" lon="7.30380988"><ele></ele><time>2014-6-4T11:2:10Z</time></trkpt>
<trkpt lat="46.22996500" lon="7.30330026"><ele></ele><time>2014-6-4T11:2:13Z</time></trkpt>
<trkpt lat="46.22991915" lon="7.30267899"><ele></ele><time>2014-6-4T11:2:16Z</time></trkpt>
<trkpt lat="46.22991370" lon="7.30176754"><ele></ele><time>2014-6-4T11:2:19Z</time></trkpt>
<trkpt lat="46.22992812" lon="7.30143746"><ele></ele><time>2014-6-4T11:2:22Z</time></trkpt>
<trkpt lat="46.22991915" lon="7.30121467"><ele></ele><time>2014-6-4T11:2:25Z</time></trkpt>
<trkpt lat="46.22973919" lon="7.30048763"><ele></ele><time>2014-6-4T11:2:28Z</time></trkpt>
<trkpt lat="46.22947994" lon="7.29957920"><ele></ele><time>2014-6-4T11:2:31Z</time></trkpt>
<trkpt lat="46.22930735" lon="7.29911534"><ele></ele><time>2014-6-4T11:2:34Z</time></trkpt>
<trkpt lat="46.22927223" lon="7.29870270"><ele></ele><time>2014-6-4T11:2:37Z</time></trkpt>
<trkpt lat="46.22922286" lon="7.29806945"><ele></ele><time>2014-6-4T11:2:40Z</time></trkpt>
<trkpt lat="46.22891106" lon="7.29698894"><ele></ele><time>2014-6-4T11:2:43Z</time></trkpt>
<trkpt lat="46.22883218" lon="7.29656775"><ele></ele><time>2014-6-4T11:2:46Z</time></trkpt>
<trkpt lat="46.22874342" lon="7.29571405"><ele></ele><time>2014-6-4T11:2:49Z</time></trkpt>
<trkpt lat="46.22858148" lon="7.29537140"><ele></ele><time>2014-6-4T11:2:52Z</time></trkpt>
<trkpt lat="46.22843580" lon="7.29515028"><ele></ele><time>2014-6-4T11:2:55Z</time></trkpt>
<trkpt lat="46.22814554" lon="7.29491911"><ele></ele><time>2014-6-4T11:2:58Z</time></trkpt>
<trkpt lat="46.22800204" lon="7.29488399"><ele></ele><time>2014-6-4T11:3:1Z</time></trkpt>
<trkpt lat="46.22741782" lon="7.29464795"><ele></ele><time>2014-6-4T11:3:4Z</time></trkpt>
<trkpt lat="46.22717567" lon="7.29437261"><ele></ele><time>2014-6-4T11:3:7Z</time></trkpt>
<trkpt lat="46.22690393" lon="7.29418611"><ele></ele><time>2014-6-4T11:3:10Z</time></trkpt>
<trkpt lat="46.22614838" lon="7.29398134"><ele></ele><time>2014-6-4T11:3:13Z</time></trkpt>
<trkpt lat="46.22553240" lon="7.29390331"><ele></ele><time>2014-6-4T11:3:16Z</time></trkpt>
<trkpt lat="46.22540809" lon="7.29385687"><ele></ele><time>2014-6-4T11:3:19Z</time></trkpt>
<trkpt lat="46.22514959" lon="7.29398235"><ele></ele><time>2014-6-4T11:3:22Z</time></trkpt>
<trkpt lat="46.22450142" lon="7.29454033"><ele></ele><time>2014-6-4T11:3:25Z</time></trkpt>
<trkpt lat="46.22436538" lon="7.29466354"><ele></ele><time>2014-6-4T11:3:28Z</time></trkpt>
<trkpt lat="46.22447368" lon="7.29268089"><ele></ele><time>2014-6-4T11:3:31Z</time></trkpt>
<trkpt lat="46.22463620" lon="7.29125890"><ele></ele><time>2014-6-4T11:3:34Z</time></trkpt>
<trkpt lat="46.22474584" lon="7.29026330"><ele></ele><time>2014-6-4T11:3:37Z</time></trkpt>
<trkpt lat="46.22484818" lon="7.28939694"><ele></ele><time>2014-6-4T11:3:40Z</time></trkpt>
<trkpt lat="46.22489654" lon="7.28844141"><ele></ele><time>2014-6-4T11:3:43Z</time></trkpt>
<trkpt lat="46.22486629" lon="7.28713484"><ele></ele><time>2014-6-4T11:3:46Z</time></trkpt>
<trkpt lat="46.22485128" lon="7.28626437"><ele></ele><time>2014-6-4T11:3:49Z</time></trkpt>
<trkpt lat="46.22482396" lon="7.28520080"><ele></ele><time>2014-6-4T11:3:52Z</time></trkpt>
<trkpt lat="46.22475020" lon="7.28433000"><ele></ele><time>2014-6-4T11:3:55Z</time></trkpt>
<trkpt lat="46.22463947" lon="7.28393898"><ele></ele><time>2014-6-4T11:3:58Z</time></trkpt>
<trkpt lat="46.22462447" lon="7.28376338"><ele></ele><time>2014-6-4T11:4:1Z</time></trkpt>
<trkpt lat="46.22431048" lon="7.28274414"><ele></ele><time>2014-6-4T11:4:4Z</time></trkpt>
<trkpt lat="46.22407830" lon="7.28218809"><ele></ele><time>2014-6-4T11:4:7Z</time></trkpt>
<trkpt lat="46.22377169" lon="7.28150966"><ele></ele><time>2014-6-4T11:4:10Z</time></trkpt>
<trkpt lat="46.22365259" lon="7.28124470"><ele></ele><time>2014-6-4T11:4:13Z</time></trkpt>
<trkpt lat="46.22354019" lon="7.28103918"><ele></ele><time>2014-6-4T11:4:16Z</time></trkpt>
</trkseg></trk></gpx>